createdAt,value
2023-02-12T00:01:11.641Z,45.90
2023-02-12T00:03:40.314Z,44.17
2023-02-12T00:06:09.534Z,43.25
2023-02-12T00:08:37.871Z,43.95
2023-02-12T00:11:12.401Z,40.42
2023-02-12T00:13:40.278Z,39.67
2023-02-12T00:16:10.082Z,42.80
2023-02-12T00:18:37.639Z,42.20
2023-02-12T00:21:06.130Z,41.55
2023-02-12T00:23:33.572Z,39.90
2023-02-12T00:26:01.163Z,39.92
2023-02-12T00:28:28.640Z,40.15
2023-02-12T00:30:56.154Z,39.47
2023-02-12T00:33:23.568Z,41.33
2023-02-12T00:35:59.963Z,39.15
2023-02-12T00:38:27.659Z,38.28
2023-02-12T00:40:55.126Z,40.42
2023-02-12T00:43:22.579Z,38.75
2023-02-12T00:45:50.001Z,40.83
2023-02-12T00:48:17.735Z,40.20
2023-02-12T00:50:46.921Z,39.00
2023-02-12T00:53:15.058Z,38.35
2023-02-12T00:55:42.746Z,38.10
2023-02-12T00:58:10.561Z,40.17
2023-02-12T01:00:38.075Z,39.78
2023-02-12T01:03:06.122Z,37.88
2023-02-12T01:05:33.717Z,37.75
2023-02-12T01:08:01.149Z,37.42
2023-02-12T01:10:28.941Z,37.45
2023-02-12T01:12:56.773Z,40.75
2023-02-12T01:15:24.270Z,37.75
2023-02-12T01:17:53.366Z,37.97
2023-02-12T01:20:23.472Z,39.90
2023-02-12T01:22:51.465Z,39.40
2023-02-12T01:25:20.656Z,41.03
2023-02-12T01:27:48.446Z,39.38
2023-02-12T01:30:16.632Z,40.33
2023-02-12T01:32:44.461Z,39.67
2023-02-12T01:35:11.937Z,38.00
2023-02-12T01:37:41.589Z,38.10
2023-02-12T01:40:10.294Z,40.00
2023-02-12T01:42:37.715Z,37.60
2023-02-12T01:45:14.307Z,38.38
2023-02-12T01:47:44.629Z,39.83
2023-02-12T01:50:17.454Z,38.13
2023-02-12T01:52:49.814Z,38.08
2023-02-12T01:55:19.211Z,40.45
2023-02-12T01:57:48.236Z,38.95
2023-02-12T02:00:20.979Z,38.72
2023-02-12T02:02:54.019Z,40.10
2023-02-12T02:05:43.414Z,39.63
2023-02-12T02:08:12.501Z,40.95
2023-02-12T02:10:40.071Z,39.35
2023-02-12T02:13:27.045Z,38.38
2023-02-12T02:15:59.951Z,41.20
2023-02-12T02:18:38.771Z,44.08
2023-02-12T02:21:09.359Z,40.42
2023-02-12T02:24:21.270Z,39.95
2023-02-12T02:27:10.365Z,39.65
2023-02-12T02:30:08.206Z,40.30
2023-02-12T02:32:53.822Z,41.97
2023-02-12T02:35:57.826Z,45.10
2023-02-12T02:38:40.847Z,43.97
2023-02-12T02:41:25.822Z,45.35
2023-02-12T02:43:53.432Z,46.10
2023-02-12T02:46:25.225Z,49.63
2023-02-12T02:51:33.315Z,48.53
2023-02-12T02:54:07.648Z,48.55
2023-02-12T02:56:39.228Z,51.10
2023-02-12T02:59:12.842Z,51.75
2023-02-12T03:01:48.082Z,50.45
2023-02-12T03:04:26.531Z,49.72
2023-02-12T03:06:56.248Z,45.92
2023-02-12T03:09:29.280Z,43.53
2023-02-12T03:12:01.656Z,43.35
2023-02-12T03:14:40.905Z,47.35
2023-02-12T03:17:20.530Z,47.13
2023-02-12T03:19:57.098Z,47.50
2023-02-12T03:22:37.714Z,48.70
2023-02-12T03:25:14.362Z,48.30
2023-02-12T03:27:47.368Z,47.90
2023-02-12T03:30:15.343Z,47.35
2023-02-12T03:32:57.482Z,49.38
2023-02-12T03:35:35.670Z,50.35
2023-02-12T03:38:07.317Z,49.67
2023-02-12T03:40:41.212Z,52.67
2023-02-12T03:43:23.968Z,50.67
2023-02-12T03:45:57.251Z,50.92
2023-02-12T03:48:32.704Z,48.50
2023-02-12T03:51:04.418Z,51.55
2023-02-12T03:53:32.560Z,49.35
2023-02-12T03:56:11.010Z,49.20
2023-02-12T03:58:41.195Z,51.08
2023-02-12T04:01:08.962Z,47.95
2023-02-12T04:03:36.699Z,48.38
2023-02-12T04:06:04.454Z,50.00
2023-02-12T04:08:32.691Z,48.15
2023-02-12T04:11:06.115Z,50.67
2023-02-12T04:14:02.639Z,47.28
2023-02-12T04:16:40.862Z,47.80
2023-02-12T04:19:13.087Z,48.97
2023-02-12T04:22:08.490Z,47.78
2023-02-12T04:24:55.742Z,46.90
2023-02-12T04:27:35.608Z,44.20
2023-02-12T04:30:18.219Z,47.63
2023-02-12T04:32:51.909Z,46.90
2023-02-12T04:35:25.732Z,46.38
2023-02-12T04:38:30.881Z,47.03
2023-02-12T04:40:59.096Z,47.33
2023-02-12T04:43:36.665Z,45.85
2023-02-12T04:46:06.054Z,44.60
2023-02-12T04:48:34.670Z,46.92
2023-02-12T04:51:02.539Z,45.53
2023-02-12T04:53:29.991Z,45.55
2023-02-12T04:55:57.776Z,44.28
2023-02-12T04:58:25.357Z,44.28
2023-02-12T05:00:52.796Z,42.53
2023-02-12T05:03:20.412Z,44.08
2023-02-12T05:05:47.849Z,43.75
2023-02-12T05:08:15.317Z,44.58
2023-02-12T05:10:42.805Z,43.20
2023-02-12T05:13:10.931Z,44.03
2023-02-12T05:15:41.565Z,44.58
2023-02-12T05:18:09.159Z,43.80
2023-02-12T05:20:36.546Z,44.00
2023-02-12T05:23:03.919Z,43.92
2023-02-12T05:25:32.053Z,42.55
2023-02-12T05:28:00.162Z,41.90
2023-02-12T05:30:27.838Z,42.17
2023-02-12T05:32:55.315Z,41.05
2023-02-12T05:35:22.717Z,41.28
2023-02-12T05:37:50.143Z,43.30
2023-02-12T05:40:17.960Z,42.05
2023-02-12T05:42:45.522Z,40.55
2023-02-12T05:45:12.905Z,39.55
2023-02-12T05:47:40.360Z,43.30
2023-02-12T05:50:08.360Z,40.00
2023-02-12T05:52:35.843Z,40.30
2023-02-12T05:55:03.661Z,40.85
2023-02-12T05:57:31.098Z,41.20
2023-02-12T05:59:58.578Z,42.88
2023-02-12T06:02:26.237Z,40.17
2023-02-12T06:04:53.838Z,40.00
2023-02-12T06:07:21.559Z,39.88
2023-02-12T06:09:49.050Z,39.92
2023-02-12T06:12:16.731Z,40.78
2023-02-12T06:14:44.275Z,40.03
2023-02-12T06:17:11.648Z,40.47
2023-02-12T06:19:39.145Z,39.85
2023-02-12T06:22:06.746Z,39.92
2023-02-12T06:24:34.269Z,39.33
2023-02-12T06:27:01.777Z,41.35
2023-02-12T06:29:29.359Z,39.17
2023-02-12T06:31:56.901Z,38.95
2023-02-12T06:34:24.497Z,39.28
2023-02-12T06:36:52.049Z,38.60
2023-02-12T06:39:19.573Z,37.63
2023-02-12T06:41:47.026Z,38.35
2023-02-12T06:44:14.632Z,36.75
2023-02-12T06:46:42.394Z,37.92
2023-02-12T06:49:12.760Z,38.03
2023-02-12T06:51:41.522Z,37.70
2023-02-12T06:54:16.283Z,39.03
2023-02-12T06:56:44.407Z,39.22
2023-02-12T06:59:18.127Z,39.47
2023-02-12T07:01:45.618Z,37.05
2023-02-12T07:04:13.688Z,38.38
2023-02-12T07:06:41.405Z,37.65
2023-02-12T07:09:08.864Z,38.38
2023-02-12T07:11:38.511Z,39.50
2023-02-12T07:14:07.357Z,41.70
2023-02-12T07:16:35.125Z,40.97
2023-02-12T07:19:02.766Z,42.38
2023-02-12T07:21:30.854Z,40.97
2023-02-12T07:23:58.366Z,41.50
2023-02-12T07:26:25.794Z,42.22
2023-02-12T07:28:53.256Z,42.33
2023-02-12T07:31:23.515Z,42.33
2023-02-12T07:33:55.769Z,41.90
2023-02-12T07:36:24.146Z,41.17
2023-02-12T07:38:51.757Z,39.42
2023-02-12T07:41:22.816Z,41.35
2023-02-12T07:43:54.758Z,40.23
2023-02-12T07:48:52.369Z,37.70
2023-02-12T07:51:19.788Z,39.55
2023-02-12T07:53:47.882Z,40.72
2023-02-12T07:56:19.168Z,39.67
2023-02-12T07:58:48.043Z,37.88
2023-02-12T08:01:27.503Z,37.20
2023-02-12T08:04:00.532Z,35.88
2023-02-12T08:06:32.024Z,34.25
2023-02-12T08:09:02.293Z,33.17
2023-02-12T08:11:30.484Z,32.58
2023-02-12T08:13:58.595Z,35.33
2023-02-12T08:16:28.277Z,34.90
2023-02-12T08:19:02.405Z,33.83
2023-02-12T08:21:35.300Z,34.95
2023-02-12T08:24:02.835Z,33.90
2023-02-12T08:26:36.499Z,35.20
2023-02-12T08:29:09.995Z,38.63
2023-02-12T08:31:40.356Z,37.92
2023-02-12T08:34:15.377Z,36.42
2023-02-12T08:36:44.276Z,37.55
2023-02-12T08:39:12.793Z,36.38
2023-02-12T08:41:42.377Z,37.75
2023-02-12T08:44:11.326Z,37.25
2023-02-12T08:46:43.071Z,36.63
2023-02-12T08:49:15.553Z,33.92
2023-02-12T08:51:45.898Z,35.17
2023-02-12T08:54:15.864Z,35.70
2023-02-12T08:56:47.383Z,33.08
2023-02-12T08:59:16.046Z,33.15
2023-02-12T09:01:44.817Z,31.23
2023-02-12T09:04:18.139Z,30.58
2023-02-12T09:06:46.485Z,30.13
2023-02-12T09:09:14.794Z,33.00
2023-02-12T09:11:42.735Z,34.75
2023-02-12T09:14:13.522Z,33.33
2023-02-12T09:16:41.566Z,33.75
2023-02-12T09:19:12.092Z,32.05
2023-02-12T09:21:39.530Z,32.00
2023-02-12T09:24:07.693Z,32.42
2023-02-12T09:26:35.469Z,33.08
2023-02-12T09:29:04.440Z,32.80
2023-02-12T09:31:33.587Z,33.17
2023-02-12T09:34:04.030Z,33.25
2023-02-12T09:36:32.294Z,32.17
2023-02-12T09:39:00.513Z,32.60
2023-02-12T09:41:52.517Z,34.47
2023-02-12T09:44:34.850Z,33.83
2023-02-12T09:47:25.400Z,33.10
2023-02-12T09:50:30.382Z,34.95
2023-02-12T09:52:59.251Z,34.58
2023-02-12T09:55:32.922Z,36.45
2023-02-12T09:58:05.448Z,36.75
2023-02-12T10:00:33.015Z,36.43
2023-02-12T10:03:10.854Z,36.30
2023-02-12T10:05:45.119Z,35.05
2023-02-12T10:08:23.941Z,34.03
2023-02-12T10:10:59.760Z,32.75
2023-02-12T10:13:48.786Z,32.30
2023-02-12T10:16:38.540Z,33.03
2023-02-12T10:19:28.729Z,31.77
2023-02-12T10:22:17.383Z,32.72
2023-02-12T10:25:03.338Z,35.78
2023-02-12T10:27:41.634Z,32.60
2023-02-12T10:30:21.697Z,32.85
2023-02-12T10:32:54.145Z,35.70
2023-02-12T10:35:23.713Z,35.53
2023-02-12T10:38:16.446Z,35.05
2023-02-12T10:40:45.301Z,34.65
2023-02-12T10:43:13.932Z,36.80
2023-02-12T10:45:43.812Z,35.72
2023-02-12T10:48:22.318Z,36.25
2023-02-12T10:51:04.551Z,37.28
2023-02-12T10:53:44.751Z,37.55
2023-02-12T10:56:14.814Z,36.80
2023-02-12T10:58:50.439Z,35.80
2023-02-12T11:01:20.523Z,36.58
2023-02-12T11:03:48.503Z,35.33
2023-02-12T11:06:18.892Z,33.65
2023-02-12T11:08:46.670Z,32.60
2023-02-12T11:11:15.979Z,33.95
2023-02-12T11:13:54.640Z,33.95
2023-02-12T11:16:30.814Z,32.00
2023-02-12T11:19:07.113Z,32.72
2023-02-12T11:21:36.432Z,30.80
2023-02-12T11:24:36.153Z,33.80
2023-02-12T11:27:16.933Z,33.92
2023-02-12T11:29:49.045Z,35.85
2023-02-12T11:32:18.949Z,35.58
2023-02-12T11:35:14.976Z,36.35
2023-02-12T11:37:44.646Z,36.67
2023-02-12T11:40:28.175Z,37.13
2023-02-12T11:43:05.953Z,38.75
2023-02-12T11:45:44.877Z,37.53
2023-02-12T11:48:22.613Z,40.00
2023-02-12T11:50:54.224Z,34.85
2023-02-12T11:53:34.567Z,35.75
2023-02-12T11:56:07.170Z,35.78
2023-02-12T11:58:34.711Z,36.10
2023-02-12T12:01:19.567Z,37.35
2023-02-12T12:04:03.346Z,34.55
2023-02-12T12:06:58.063Z,37.58
2023-02-12T12:09:29.147Z,33.95
2023-02-12T12:12:08.046Z,36.95
2023-02-12T12:14:57.718Z,37.88
2023-02-12T12:18:15.586Z,37.72
2023-02-12T12:21:17.390Z,31.88
2023-02-12T12:23:55.037Z,33.80
2023-02-12T12:26:31.342Z,33.58
2023-02-12T12:29:10.643Z,34.42
2023-02-12T12:31:42.119Z,34.53
2023-02-12T12:34:14.165Z,35.97
2023-02-12T12:37:11.980Z,36.05
2023-02-12T12:40:03.619Z,35.72
2023-02-12T12:42:49.110Z,35.35
2023-02-12T12:45:47.669Z,36.30
2023-02-12T12:48:18.204Z,38.88
2023-02-12T12:51:27.039Z,38.67
2023-02-12T12:54:07.477Z,37.65
2023-02-12T12:57:17.365Z,39.22
2023-02-12T13:00:12.873Z,40.90
2023-02-12T13:03:10.949Z,40.05
2023-02-12T13:05:53.445Z,37.30
2023-02-12T13:10:57.523Z,38.67
2023-02-12T13:13:32.957Z,38.05
2023-02-12T13:16:03.378Z,35.13
2023-02-12T13:18:51.574Z,31.13
2023-02-12T13:21:28.649Z,29.38
2023-02-12T13:24:14.897Z,24.98
2023-02-12T13:27:22.062Z,25.55
2023-02-12T13:30:06.547Z,14.43
2023-02-12T13:32:40.690Z,13.98
2023-02-12T13:35:14.390Z,14.73
2023-02-12T13:37:45.686Z,15.50
2023-02-12T13:40:20.487Z,17.13
2023-02-12T13:43:00.029Z,14.23
2023-02-12T13:45:33.841Z,13.55
2023-02-12T13:48:01.241Z,15.52
2023-02-12T13:50:34.757Z,13.43
2023-02-12T13:53:30.180Z,14.27
2023-02-12T13:56:02.073Z,12.65
2023-02-12T13:58:32.751Z,16.25
2023-02-12T14:01:02.787Z,14.45
2023-02-12T14:03:31.750Z,15.35
2023-02-12T14:06:20.271Z,15.85
2023-02-12T14:08:51.834Z,15.90
2023-02-12T14:11:22.310Z,16.73
2023-02-12T14:14:01.479Z,14.15
2023-02-12T14:16:31.698Z,14.35
2023-02-12T14:19:36.346Z,12.40
2023-02-12T14:22:30.906Z,15.10
2023-02-12T14:25:00.345Z,14.98
2023-02-12T14:27:36.044Z,15.32
2023-02-12T14:30:28.337Z,17.63
2023-02-12T14:33:00.575Z,19.38
2023-02-12T14:37:58.266Z,17.48
2023-02-12T14:40:34.726Z,18.35
2023-02-12T14:43:24.652Z,18.40
2023-02-12T14:45:52.510Z,17.65
2023-02-12T14:48:51.592Z,17.55
2023-02-12T14:51:21.740Z,18.63
2023-02-12T14:53:51.512Z,14.70
2023-02-12T14:56:22.285Z,18.67
2023-02-12T14:58:52.960Z,19.30
2023-02-12T15:01:34.042Z,19.48
2023-02-12T15:04:16.829Z,20.73
2023-02-12T15:06:53.610Z,18.88
2023-02-12T15:09:50.574Z,18.92
2023-02-12T15:12:26.642Z,19.08
2023-02-12T15:15:10.452Z,19.38
2023-02-12T15:17:40.881Z,20.08
2023-02-12T15:20:21.274Z,19.15
2023-02-12T15:22:48.739Z,19.60
2023-02-12T15:25:28.423Z,20.42
2023-02-12T15:28:21.654Z,19.27
2023-02-12T15:30:50.495Z,19.35
2023-02-12T15:33:27.881Z,20.30
2023-02-12T15:35:59.771Z,20.95
2023-02-12T15:38:43.715Z,19.40
2023-02-12T15:41:34.079Z,20.23
2023-02-12T15:44:22.201Z,20.48
2023-02-12T15:47:08.653Z,18.55
2023-02-12T15:49:38.301Z,19.55
2023-02-12T15:52:19.055Z,18.40
2023-02-12T15:54:47.467Z,18.95
2023-02-12T15:57:22.085Z,17.48
2023-02-12T16:00:02.146Z,20.73
2023-02-12T16:02:33.086Z,19.88
2023-02-12T16:05:04.270Z,19.67
2023-02-12T16:07:36.963Z,18.40
2023-02-12T16:10:06.274Z,18.17
2023-02-12T16:12:37.657Z,18.33
2023-02-12T16:15:05.857Z,18.63
2023-02-12T16:17:36.570Z,15.77
2023-02-12T16:20:08.901Z,17.08
2023-02-12T16:25:21.235Z,16.08
2023-02-12T16:27:59.214Z,17.73
2023-02-12T16:30:28.314Z,16.77
2023-02-12T16:32:56.645Z,17.88
2023-02-12T16:35:35.668Z,17.63
2023-02-12T16:38:35.294Z,18.27
2023-02-12T16:41:14.514Z,18.08
2023-02-12T16:43:41.976Z,17.70
2023-02-12T16:46:09.671Z,17.30
2023-02-12T16:48:49.505Z,17.50
2023-02-12T16:51:33.351Z,17.55
2023-02-12T16:54:03.393Z,16.90
2023-02-12T16:56:38.756Z,16.90
2023-02-12T16:59:06.248Z,17.67
2023-02-12T17:01:36.162Z,18.02
2023-02-12T17:04:09.175Z,18.67
2023-02-12T17:06:36.636Z,17.65
2023-02-12T17:09:04.085Z,17.25
2023-02-12T17:11:31.566Z,17.10
2023-02-12T17:13:59.029Z,17.02
2023-02-12T17:16:31.237Z,16.13
2023-02-12T17:19:00.492Z,17.63
2023-02-12T17:21:31.705Z,15.95
2023-02-12T17:23:59.324Z,16.23
2023-02-12T17:26:26.903Z,16.73
2023-02-12T17:28:54.374Z,18.42
2023-02-12T17:31:23.940Z,16.48
2023-02-12T17:33:51.561Z,15.88
2023-02-12T17:36:19.114Z,16.00
2023-02-12T17:38:46.560Z,16.40
2023-02-12T17:41:14.062Z,15.05
2023-02-12T17:43:41.494Z,14.65
2023-02-12T17:46:14.417Z,14.82
2023-02-12T17:48:41.955Z,14.20
2023-02-12T17:51:11.656Z,14.75
2023-02-12T17:53:40.227Z,15.20
2023-02-12T17:56:17.210Z,14.38
2023-02-12T17:58:44.752Z,15.68
2023-02-12T18:01:15.557Z,14.73
2023-02-12T18:03:43.060Z,14.68
2023-02-12T18:06:14.073Z,13.45
2023-02-12T18:08:42.469Z,13.65
2023-02-12T18:11:11.174Z,13.80
2023-02-12T18:13:39.486Z,14.98
2023-02-12T18:16:09.118Z,15.02
2023-02-12T18:18:37.969Z,14.43
2023-02-12T18:21:13.722Z,14.98
2023-02-12T18:23:41.698Z,13.93
2023-02-12T18:26:15.059Z,14.32
2023-02-12T18:28:42.981Z,14.02
2023-02-12T18:31:11.308Z,15.00
2023-02-12T18:33:39.309Z,14.25
2023-02-12T18:36:09.870Z,13.50
2023-02-12T18:38:39.409Z,12.57
2023-02-12T18:41:09.076Z,13.07
2023-02-12T18:43:37.199Z,13.57
2023-02-12T18:46:12.349Z,12.80
2023-02-12T18:48:40.176Z,12.20
2023-02-12T18:51:09.201Z,12.77
2023-02-12T18:53:37.131Z,12.68
2023-02-12T18:56:06.998Z,12.93
2023-02-12T18:58:35.085Z,12.05
2023-02-12T19:01:11.939Z,12.23
2023-02-12T19:03:39.503Z,12.13
2023-02-12T19:06:07.173Z,11.60
2023-02-12T19:08:34.668Z,11.75
2023-02-12T19:11:02.140Z,11.98
2023-02-12T19:13:29.573Z,11.88
2023-02-12T19:15:57.222Z,11.48
2023-02-12T19:18:24.783Z,11.15
2023-02-12T19:20:52.217Z,11.18
2023-02-12T19:23:19.821Z,11.40
2023-02-12T19:25:47.241Z,11.85
2023-02-12T19:28:14.731Z,11.85
2023-02-12T19:30:42.220Z,11.82
2023-02-12T19:33:09.757Z,11.68
2023-02-12T19:35:37.170Z,10.82
2023-02-12T19:38:04.572Z,11.35
2023-02-12T19:40:32.271Z,11.40
2023-02-12T19:42:59.657Z,11.85
2023-02-12T19:45:27.148Z,11.52
2023-02-12T19:47:54.681Z,11.40
2023-02-12T19:50:22.085Z,11.30
2023-02-12T19:52:49.545Z,11.25
2023-02-12T19:55:17.043Z,10.40
2023-02-12T19:57:44.777Z,10.57
2023-02-12T20:00:13.038Z,10.70
2023-02-12T20:02:43.552Z,10.63
2023-02-12T20:05:11.358Z,10.98
2023-02-12T20:07:38.860Z,12.15
2023-02-12T20:10:07.002Z,11.82
2023-02-12T20:12:36.253Z,12.05
2023-02-12T20:15:04.336Z,12.70
2023-02-12T20:17:31.848Z,12.95
2023-02-12T20:19:59.346Z,16.98
2023-02-12T20:22:26.808Z,14.38
2023-02-12T20:24:54.344Z,13.80
2023-02-12T20:27:21.785Z,13.98
2023-02-12T20:29:49.301Z,12.18
2023-02-12T20:32:16.718Z,11.60
2023-02-12T20:34:50.899Z,12.15
2023-02-12T20:37:19.259Z,12.98
2023-02-12T20:39:46.794Z,13.82
2023-02-12T20:42:14.276Z,12.48
2023-02-12T20:44:41.758Z,12.95
2023-02-12T20:47:09.255Z,13.50
2023-02-12T20:49:36.901Z,13.23
2023-02-12T20:52:04.627Z,13.38
2023-02-12T20:54:32.053Z,12.68
2023-02-12T20:56:59.542Z,14.52
2023-02-12T20:59:27.129Z,13.95
2023-02-12T21:01:54.729Z,13.95
2023-02-12T21:04:22.197Z,13.20
2023-02-12T21:06:49.905Z,13.20
2023-02-12T21:09:17.572Z,15.10
2023-02-12T21:11:45.952Z,15.05
2023-02-12T21:14:23.602Z,14.98
2023-02-12T21:16:55.745Z,14.30
2023-02-12T21:19:24.171Z,16.08
2023-02-12T21:21:51.849Z,16.35
2023-02-12T21:24:22.430Z,14.88
2023-02-12T21:26:51.361Z,15.77
2023-02-12T21:29:19.760Z,15.02
2023-02-12T21:31:48.963Z,14.60
2023-02-12T21:34:22.601Z,14.98
2023-02-12T21:36:52.445Z,14.75
2023-02-12T21:39:27.025Z,15.48
2023-02-12T21:41:57.742Z,16.65
2023-02-12T21:44:26.391Z,15.48
2023-02-12T21:46:54.130Z,14.30
2023-02-12T21:49:28.196Z,14.15
2023-02-12T21:51:59.257Z,15.02
2023-02-12T21:54:27.135Z,14.60
2023-02-12T21:56:55.565Z,15.52
2023-02-12T21:59:24.755Z,14.45
2023-02-12T22:01:55.450Z,15.32
2023-02-12T22:04:22.962Z,14.95
2023-02-12T22:06:52.676Z,14.32
2023-02-12T22:09:22.456Z,14.35
2023-02-12T22:11:52.333Z,14.25
2023-02-12T22:14:21.958Z,14.90
2023-02-12T22:16:50.162Z,14.38
2023-02-12T22:19:18.256Z,11.73
2023-02-12T22:21:45.922Z,12.07
2023-02-12T22:24:16.017Z,12.05
2023-02-12T22:26:44.669Z,13.52
2023-02-12T22:29:14.639Z,9.40
2023-02-12T22:31:43.593Z,10.18
2023-02-12T22:34:13.825Z,9.90
2023-02-12T22:36:42.055Z,9.57
2023-02-12T22:39:11.036Z,13.05
2023-02-12T22:41:38.706Z,12.60
2023-02-12T22:44:06.269Z,11.90
2023-02-12T22:46:35.266Z,10.88
2023-02-12T22:49:02.834Z,10.25
2023-02-12T22:51:32.109Z,8.45
2023-02-12T22:54:00.227Z,8.63
2023-02-12T22:56:27.701Z,7.97
2023-02-12T22:58:57.220Z,7.63
2023-02-12T23:01:25.109Z,8.68
2023-02-12T23:03:53.009Z,8.57
2023-02-12T23:06:23.447Z,9.50
2023-02-12T23:08:52.742Z,8.05
2023-02-12T23:11:20.727Z,8.60
2023-02-12T23:13:48.136Z,7.55
2023-02-12T23:16:15.616Z,8.13
2023-02-12T23:18:43.332Z,7.45
2023-02-12T23:21:10.954Z,7.53
2023-02-12T23:23:38.380Z,7.22
2023-02-12T23:26:06.154Z,7.75
2023-02-12T23:28:33.665Z,7.07
2023-02-12T23:31:01.640Z,7.88
2023-02-12T23:33:29.294Z,7.28
2023-02-12T23:35:56.834Z,7.35
2023-02-12T23:38:24.296Z,6.47
2023-02-12T23:40:51.918Z,6.88
2023-02-12T23:43:19.385Z,7.03
2023-02-12T23:45:47.194Z,7.88
2023-02-12T23:48:15.015Z,7.85
2023-02-12T23:50:42.556Z,6.53
2023-02-12T23:53:11.109Z,6.82
2023-02-12T23:55:39.950Z,6.95
2023-02-12T23:58:08.223Z,7.07
